createdAt,value
2023-02-11T00:01:30.248Z,85.18
2023-02-11T00:04:00.338Z,85.38
2023-02-11T00:06:31.918Z,84.92
2023-02-11T00:09:00.843Z,84.63
2023-02-11T00:11:30.777Z,84.50
2023-02-11T00:14:00.366Z,84.75
2023-02-11T00:16:29.400Z,84.67
2023-02-11T00:18:58.806Z,84.96
2023-02-11T00:21:29.363Z,84.94
2023-02-11T00:24:00.297Z,85.21
2023-02-11T00:26:32.470Z,84.68
2023-02-11T00:29:02.116Z,84.50
2023-02-11T00:31:33.295Z,84.24
2023-02-11T00:34:01.771Z,83.98
2023-02-11T00:36:31.990Z,83.71
2023-02-11T00:39:01.225Z,84.02
2023-02-11T00:41:30.089Z,83.89
2023-02-11T00:44:01.046Z,83.96
2023-02-11T00:46:29.902Z,84.17
2023-02-11T00:48:58.306Z,84.06
2023-02-11T00:51:28.751Z,84.20
2023-02-11T00:53:59.236Z,84.33
2023-02-11T00:56:28.240Z,83.94
2023-02-11T00:58:57.789Z,83.82
2023-02-11T01:01:26.846Z,84.07
2023-02-11T01:03:55.237Z,83.70
2023-02-11T01:06:25.229Z,83.88
2023-02-11T01:08:53.549Z,83.96
2023-02-11T01:11:25.053Z,84.41
2023-02-11T01:13:53.656Z,84.20
2023-02-11T01:16:23.474Z,84.17
2023-02-11T01:18:53.662Z,84.42
2023-02-11T01:21:22.067Z,84.53
2023-02-11T01:23:53.489Z,84.59
2023-02-11T01:26:23.145Z,84.37
2023-02-11T01:28:51.960Z,84.41
2023-02-11T01:31:21.307Z,84.02
2023-02-11T01:33:50.253Z,83.61
2023-02-11T01:36:18.621Z,83.52
2023-02-11T01:38:46.917Z,83.79
2023-02-11T01:41:15.965Z,83.58
2023-02-11T01:43:48.973Z,83.76
2023-02-11T01:46:29.795Z,84.00
2023-02-11T01:49:05.695Z,83.84
2023-02-11T01:51:39.992Z,83.98
2023-02-11T01:54:30.220Z,84.05
2023-02-11T01:57:18.817Z,83.89
2023-02-11T01:59:58.237Z,84.32
2023-02-11T02:02:35.931Z,84.41
2023-02-11T02:05:18.870Z,84.70
2023-02-11T02:07:57.691Z,84.82
2023-02-11T02:10:28.904Z,85.13
2023-02-11T02:12:57.764Z,84.73
2023-02-11T02:15:31.139Z,84.57
2023-02-11T02:18:06.972Z,84.80
2023-02-11T02:21:30.722Z,84.92
2023-02-11T02:24:39.740Z,85.00
2023-02-11T02:27:33.445Z,85.01
2023-02-11T02:30:37.117Z,85.40
2023-02-11T02:33:22.932Z,85.59
2023-02-11T02:36:05.435Z,85.65
2023-02-11T02:38:39.630Z,85.83
2023-02-11T02:41:11.604Z,85.86
2023-02-11T02:43:45.497Z,85.32
2023-02-11T02:46:17.335Z,85.43
2023-02-11T02:48:49.514Z,85.72
2023-02-11T02:51:35.733Z,85.64
2023-02-11T02:54:30.526Z,85.53
2023-02-11T02:57:11.146Z,85.49
2023-02-11T02:59:59.017Z,85.67
2023-02-11T03:02:33.010Z,85.44
2023-02-11T03:05:09.836Z,85.37
2023-02-11T03:07:45.588Z,85.71
2023-02-11T03:10:20.406Z,85.86
2023-02-11T03:12:51.039Z,86.14
2023-02-11T03:15:20.178Z,86.25
2023-02-11T03:17:53.340Z,86.51
2023-02-11T03:20:24.454Z,86.65
2023-02-11T03:22:57.049Z,86.66
2023-02-11T03:25:31.656Z,86.94
2023-02-11T03:28:10.433Z,86.54
2023-02-11T03:30:47.035Z,86.73
2023-02-11T03:33:25.501Z,86.25
2023-02-11T03:35:58.197Z,86.38
2023-02-11T03:38:32.048Z,86.31
2023-02-11T03:41:02.028Z,86.63
2023-02-11T03:43:36.800Z,86.65
2023-02-11T03:46:06.278Z,86.47
2023-02-11T03:48:40.136Z,86.62
2023-02-11T03:51:12.820Z,86.59
2023-02-11T03:53:44.593Z,86.54
2023-02-11T03:56:19.952Z,87.04
2023-02-11T03:58:49.589Z,86.71
2023-02-11T04:01:18.272Z,86.65
2023-02-11T04:03:46.754Z,87.01
2023-02-11T04:06:19.324Z,87.02
2023-02-11T04:08:47.895Z,86.79
2023-02-11T04:11:17.612Z,86.81
2023-02-11T04:13:46.081Z,86.87
2023-02-11T04:16:14.634Z,87.10
2023-02-11T04:18:43.145Z,87.19
2023-02-11T04:21:11.663Z,87.78
2023-02-11T04:23:41.584Z,87.88
2023-02-11T04:26:10.103Z,87.97
2023-02-11T04:28:38.640Z,87.93
2023-02-11T04:31:07.426Z,88.13
2023-02-11T04:33:35.969Z,88.35
2023-02-11T04:36:07.664Z,88.72
2023-02-11T04:38:36.252Z,88.52
2023-02-11T04:41:06.642Z,88.83
2023-02-11T04:43:34.988Z,88.82
2023-02-11T04:46:03.461Z,88.69
2023-02-11T04:48:32.161Z,89.10
2023-02-11T04:51:00.652Z,89.08
2023-02-11T04:53:29.018Z,89.18
2023-02-11T04:55:57.432Z,88.98
2023-02-11T04:58:27.300Z,88.99
2023-02-11T05:00:55.874Z,89.35
2023-02-11T05:03:24.321Z,89.56
2023-02-11T05:05:53.102Z,89.81
2023-02-11T05:08:21.682Z,90.23
2023-02-11T05:10:50.126Z,90.55
2023-02-11T05:13:18.567Z,91.12
2023-02-11T05:15:50.854Z,91.04
2023-02-11T05:18:19.702Z,91.35
2023-02-11T05:20:48.059Z,90.87
2023-02-11T05:23:16.617Z,90.46
2023-02-11T05:25:45.149Z,90.72
2023-02-11T05:28:13.559Z,90.24
2023-02-11T05:30:42.177Z,90.32
2023-02-11T05:33:12.131Z,90.01
2023-02-11T05:35:40.549Z,90.17
2023-02-11T05:38:09.137Z,90.27
2023-02-11T05:40:37.653Z,90.23
2023-02-11T05:43:06.110Z,90.20
2023-02-11T05:45:35.271Z,90.57
2023-02-11T05:48:03.811Z,90.26
2023-02-11T05:50:33.585Z,90.45
2023-02-11T05:53:02.095Z,90.87
2023-02-11T05:55:30.579Z,91.88
2023-02-11T05:57:59.041Z,91.81
2023-02-11T06:00:28.225Z,92.21
2023-02-11T06:02:56.884Z,92.04
2023-02-11T06:05:27.454Z,92.21
2023-02-11T06:08:00.942Z,92.15
2023-02-11T06:10:29.628Z,92.36
2023-02-11T06:12:58.094Z,92.13
2023-02-11T06:15:26.660Z,91.52
2023-02-11T06:17:58.330Z,91.50
2023-02-11T06:20:26.946Z,91.27
2023-02-11T06:22:55.623Z,90.93
2023-02-11T06:25:25.573Z,90.47
2023-02-11T06:27:54.085Z,90.67
2023-02-11T06:30:22.630Z,90.79
2023-02-11T06:32:51.253Z,91.19
2023-02-11T06:35:20.092Z,91.12
2023-02-11T06:37:49.694Z,91.11
2023-02-11T06:40:18.488Z,90.94
2023-02-11T06:42:48.348Z,90.97
2023-02-11T06:45:16.984Z,90.49
2023-02-11T06:47:45.800Z,90.54
2023-02-11T06:50:16.046Z,90.56
2023-02-11T06:52:44.477Z,90.27
2023-02-11T06:55:13.056Z,90.12
2023-02-11T06:57:41.618Z,90.34
2023-02-11T07:00:15.515Z,90.06
2023-02-11T07:02:45.169Z,89.61
2023-02-11T07:05:13.562Z,89.53
2023-02-11T07:07:42.101Z,89.54
2023-02-11T07:10:11.009Z,89.53
2023-02-11T07:12:39.695Z,89.38
2023-02-11T07:15:09.110Z,89.36
2023-02-11T07:17:39.104Z,89.46
2023-02-11T07:20:09.164Z,89.23
2023-02-11T07:22:37.669Z,89.67
2023-02-11T07:25:09.627Z,89.70
2023-02-11T07:27:38.288Z,89.74
2023-02-11T07:30:08.074Z,89.46
2023-02-11T07:32:38.018Z,90.35
2023-02-11T07:35:07.609Z,90.08
2023-02-11T07:37:36.407Z,90.60
2023-02-11T07:40:05.833Z,90.99
2023-02-11T07:42:36.355Z,90.73
2023-02-11T07:45:05.208Z,90.31
2023-02-11T07:47:39.606Z,90.33
2023-02-11T07:50:12.333Z,89.49
2023-02-11T07:52:41.276Z,89.71
2023-02-11T07:55:10.359Z,89.94
2023-02-11T07:57:41.672Z,90.03
2023-02-11T08:00:15.289Z,90.54
2023-02-11T08:02:45.197Z,90.77
2023-02-11T08:05:14.810Z,91.19
2023-02-11T08:07:43.428Z,91.64
2023-02-11T08:10:12.053Z,92.40
2023-02-11T08:12:40.577Z,93.71
2023-02-11T08:15:10.375Z,94.34
2023-02-11T08:17:39.253Z,94.69
2023-02-11T08:20:10.174Z,94.90
2023-02-11T08:22:38.664Z,94.87
2023-02-11T08:25:09.772Z,95.20
2023-02-11T08:27:38.268Z,95.82
2023-02-11T08:30:08.467Z,95.64
2023-02-11T08:32:37.507Z,95.52
2023-02-11T08:35:13.683Z,95.61
2023-02-11T08:37:42.291Z,95.59
2023-02-11T08:40:16.584Z,95.75
2023-02-11T08:42:46.409Z,95.88
2023-02-11T08:45:14.972Z,96.41
2023-02-11T08:47:46.430Z,95.92
2023-02-11T08:50:16.514Z,96.15
2023-02-11T08:52:45.022Z,95.78
2023-02-11T08:55:13.552Z,95.79
2023-02-11T08:57:42.052Z,95.64
2023-02-11T09:00:12.775Z,95.24
2023-02-11T09:02:46.154Z,95.12
2023-02-11T09:05:16.547Z,94.95
2023-02-11T09:07:45.147Z,95.10
2023-02-11T09:10:13.612Z,94.72
2023-02-11T09:12:42.535Z,95.20
2023-02-11T09:15:11.431Z,94.67
2023-02-11T09:17:39.903Z,94.82
2023-02-11T09:20:10.865Z,94.28
2023-02-11T09:22:42.821Z,93.56
2023-02-11T09:25:11.856Z,93.52
2023-02-11T09:27:40.400Z,93.71
2023-02-11T09:30:10.340Z,92.85
2023-02-11T09:32:39.019Z,93.02
2023-02-11T09:35:08.308Z,92.22
2023-02-11T09:37:41.137Z,91.86
2023-02-11T09:40:11.784Z,91.40
2023-02-11T09:42:49.768Z,90.89
2023-02-11T09:45:21.379Z,90.54
2023-02-11T09:47:54.430Z,90.61
2023-02-11T09:50:32.120Z,90.12
2023-02-11T09:53:06.119Z,89.79
2023-02-11T09:55:39.548Z,89.83
2023-02-11T09:58:14.526Z,89.59
2023-02-11T10:00:48.611Z,89.45
2023-02-11T10:03:45.646Z,89.64
2023-02-11T10:06:45.030Z,89.44
2023-02-11T10:09:32.338Z,89.83
2023-02-11T10:12:19.409Z,89.69
2023-02-11T10:15:07.627Z,89.80
2023-02-11T10:17:46.433Z,89.69
2023-02-11T10:20:27.745Z,89.01
2023-02-11T10:23:01.088Z,89.08
2023-02-11T10:25:39.005Z,89.39
2023-02-11T10:28:17.390Z,89.04
2023-02-11T10:30:58.972Z,89.46
2023-02-11T10:33:32.714Z,89.52
2023-02-11T10:36:01.749Z,89.54
2023-02-11T10:38:33.046Z,89.92
2023-02-11T10:41:05.159Z,89.19
2023-02-11T10:43:36.080Z,88.91
2023-02-11T10:46:07.074Z,89.48
2023-02-11T10:48:43.481Z,89.46
2023-02-11T10:51:22.970Z,88.97
2023-02-11T10:54:14.363Z,89.39
2023-02-11T10:56:52.175Z,89.15
2023-02-11T10:59:29.101Z,89.70
2023-02-11T11:02:01.443Z,89.72
2023-02-11T11:04:41.401Z,89.70
2023-02-11T11:07:18.096Z,89.41
2023-02-11T11:09:52.014Z,89.86
2023-02-11T11:12:42.255Z,90.05
2023-02-11T11:15:23.600Z,90.18
2023-02-11T11:17:53.203Z,90.36
2023-02-11T11:20:28.479Z,90.85
2023-02-11T11:23:17.732Z,91.45
2023-02-11T11:26:00.840Z,91.20
2023-02-11T11:28:36.640Z,91.32
2023-02-11T11:31:06.713Z,90.90
2023-02-11T11:33:37.239Z,91.92
2023-02-11T11:36:09.623Z,91.92
2023-02-11T11:38:45.314Z,91.94
2023-02-11T11:41:20.690Z,91.91
2023-02-11T11:43:59.504Z,92.14
2023-02-11T11:46:32.689Z,92.22
2023-02-11T11:49:23.550Z,92.28
2023-02-11T11:51:58.894Z,92.95
2023-02-11T11:54:30.185Z,93.41
2023-02-11T11:57:03.954Z,93.30
2023-02-11T11:59:34.015Z,93.39
2023-02-11T12:02:38.382Z,93.93
2023-02-11T12:05:13.424Z,93.96
2023-02-11T12:07:59.177Z,93.82
2023-02-11T12:10:49.063Z,93.94
2023-02-11T12:13:30.745Z,94.09
2023-02-11T12:16:14.077Z,93.78
2023-02-11T12:19:14.047Z,94.19
2023-02-11T12:21:57.479Z,93.90
2023-02-11T12:24:47.012Z,93.44
2023-02-11T12:27:21.450Z,93.20
2023-02-11T12:30:04.038Z,92.54
2023-02-11T12:32:46.056Z,92.50
2023-02-11T12:35:33.564Z,92.66
2023-02-11T12:38:29.084Z,91.91
2023-02-11T12:41:40.683Z,91.11
2023-02-11T12:44:18.374Z,91.54
2023-02-11T12:46:51.839Z,91.71
2023-02-11T12:49:50.763Z,91.15
2023-02-11T12:52:40.186Z,91.36
2023-02-11T12:55:19.877Z,91.17
2023-02-11T12:57:51.804Z,90.38
2023-02-11T13:00:25.822Z,90.31
2023-02-11T13:03:02.533Z,89.84
2023-02-11T13:05:39.962Z,89.36
2023-02-11T13:08:17.441Z,89.02
2023-02-11T13:10:52.016Z,88.18
2023-02-11T13:13:26.874Z,87.34
2023-02-11T13:16:02.160Z,87.80
2023-02-11T13:18:49.338Z,87.11
2023-02-11T13:21:41.852Z,86.62
2023-02-11T13:24:23.669Z,86.17
2023-02-11T13:27:02.632Z,85.62
2023-02-11T13:29:41.033Z,85.73
2023-02-11T13:32:13.017Z,85.60
2023-02-11T13:35:00.002Z,85.75
2023-02-11T13:37:36.424Z,86.09
2023-02-11T13:40:08.997Z,85.60
2023-02-11T13:42:53.041Z,84.91
2023-02-11T13:45:32.319Z,84.82
2023-02-11T13:48:04.231Z,84.25
2023-02-11T13:50:39.391Z,83.79
2023-02-11T13:53:09.846Z,83.59
2023-02-11T13:55:46.444Z,83.22
2023-02-11T13:58:32.263Z,82.97
2023-02-11T14:01:01.146Z,82.98
2023-02-11T14:04:02.951Z,82.56
2023-02-11T14:07:03.856Z,82.56
2023-02-11T14:09:39.012Z,81.99
2023-02-11T14:12:37.382Z,82.25
2023-02-11T14:15:27.397Z,81.84
2023-02-11T14:17:56.073Z,81.79
2023-02-11T14:20:43.378Z,81.71
2023-02-11T14:23:27.574Z,81.60
2023-02-11T14:26:33.767Z,81.66
2023-02-11T14:29:19.518Z,81.73
2023-02-11T14:31:59.040Z,81.56
2023-02-11T14:34:46.357Z,81.67
2023-02-11T14:37:37.669Z,81.73
2023-02-11T14:40:28.307Z,82.62
2023-02-11T14:43:14.146Z,82.48
2023-02-11T14:45:45.736Z,82.26
2023-02-11T14:48:19.072Z,82.62
2023-02-11T14:50:52.881Z,82.81
2023-02-11T14:53:27.942Z,82.91
2023-02-11T14:55:57.176Z,83.04
2023-02-11T14:58:29.587Z,83.31
2023-02-11T15:01:00.865Z,83.14
2023-02-11T15:03:36.414Z,83.25
2023-02-11T15:06:09.168Z,82.87
2023-02-11T15:08:47.074Z,83.04
2023-02-11T15:11:19.673Z,82.81
2023-02-11T15:13:52.102Z,83.04
2023-02-11T15:16:25.076Z,82.63
2023-02-11T15:18:56.492Z,82.89
2023-02-11T15:21:28.677Z,82.25
2023-02-11T15:24:00.111Z,82.24
2023-02-11T15:26:29.493Z,81.92
2023-02-11T15:28:59.598Z,81.50
2023-02-11T15:31:30.799Z,81.74
2023-02-11T15:34:08.960Z,81.86
2023-02-11T15:36:41.082Z,81.89
2023-02-11T15:39:29.119Z,82.01
2023-02-11T15:41:57.596Z,82.25
2023-02-11T15:44:33.192Z,82.03
2023-02-11T15:47:02.146Z,82.10
2023-02-11T15:49:30.724Z,81.94
2023-02-11T15:51:59.625Z,82.39
2023-02-11T15:54:32.082Z,82.43
2023-02-11T15:57:06.439Z,83.25
2023-02-11T15:59:40.413Z,82.84
2023-02-11T16:02:18.254Z,83.42
2023-02-11T16:04:52.563Z,83.18
2023-02-11T16:07:40.549Z,83.12
2023-02-11T16:10:25.667Z,83.24
2023-02-11T16:12:57.645Z,83.24
2023-02-11T16:15:49.666Z,83.11
2023-02-11T16:18:49.465Z,82.86
2023-02-11T16:21:36.216Z,83.18
2023-02-11T16:24:06.625Z,82.66
2023-02-11T16:26:40.991Z,82.96
2023-02-11T16:29:14.373Z,83.05
2023-02-11T16:31:47.362Z,83.02
2023-02-11T16:34:18.731Z,82.73
2023-02-11T16:36:48.286Z,82.97
2023-02-11T16:39:21.778Z,82.32
2023-02-11T16:41:51.683Z,82.24
2023-02-11T16:44:20.418Z,82.12
2023-02-11T16:46:50.530Z,82.05
2023-02-11T16:49:24.400Z,82.26
2023-02-11T16:51:56.898Z,82.22
2023-02-11T16:54:25.585Z,82.40
2023-02-11T16:56:54.135Z,81.94
2023-02-11T16:59:22.789Z,81.38
2023-02-11T17:01:54.544Z,81.18
2023-02-11T17:04:29.048Z,81.05
2023-02-11T17:06:58.593Z,80.92
2023-02-11T17:09:31.133Z,81.03
2023-02-11T17:12:00.210Z,80.96
2023-02-11T17:14:28.794Z,81.05
2023-02-11T17:16:59.204Z,81.01
2023-02-11T17:19:27.666Z,80.93
2023-02-11T17:21:56.213Z,81.32
2023-02-11T17:24:25.065Z,81.73
2023-02-11T17:26:56.940Z,82.48
2023-02-11T17:29:27.149Z,82.69
2023-02-11T17:31:56.003Z,82.50
2023-02-11T17:34:25.956Z,82.74
2023-02-11T17:36:54.388Z,82.58
2023-02-11T17:39:22.919Z,82.44
2023-02-11T17:41:52.603Z,82.00
2023-02-11T17:44:21.404Z,82.40
2023-02-11T17:46:49.785Z,82.09
2023-02-11T17:49:18.578Z,81.92
2023-02-11T17:51:51.421Z,81.33
2023-02-11T17:54:21.284Z,81.24
2023-02-11T17:56:50.868Z,81.12
2023-02-11T17:59:19.771Z,81.02
2023-02-11T18:01:49.362Z,81.13
2023-02-11T18:04:20.148Z,81.32
2023-02-11T18:06:50.374Z,81.37
2023-02-11T18:09:18.923Z,81.31
2023-02-11T18:11:48.465Z,80.72
2023-02-11T18:14:16.999Z,80.74
2023-02-11T18:16:46.453Z,80.72
2023-02-11T18:19:15.512Z,80.40
2023-02-11T18:21:44.183Z,80.53
2023-02-11T18:24:14.107Z,80.61
2023-02-11T18:26:43.088Z,80.53
2023-02-11T18:29:11.618Z,80.91
2023-02-11T18:31:40.450Z,80.83
2023-02-11T18:34:10.682Z,80.89
2023-02-11T18:36:39.556Z,80.89
2023-02-11T18:39:07.894Z,80.60
2023-02-11T18:41:40.034Z,80.83
2023-02-11T18:44:08.522Z,81.01
2023-02-11T18:46:36.905Z,80.66
2023-02-11T18:49:05.179Z,80.53
2023-02-11T18:51:33.483Z,81.23
2023-02-11T18:54:02.265Z,80.80
2023-02-11T18:56:30.739Z,80.90
2023-02-11T18:59:01.682Z,80.97
2023-02-11T19:01:33.694Z,80.73
2023-02-11T19:04:05.243Z,80.72
2023-02-11T19:06:36.399Z,80.54
2023-02-11T19:09:09.791Z,80.20
2023-02-11T19:11:50.183Z,79.98
2023-02-11T19:14:25.363Z,79.58
2023-02-11T19:16:59.296Z,79.42
2023-02-11T19:19:30.154Z,80.02
2023-02-11T19:21:59.615Z,79.84
2023-02-11T19:24:29.900Z,80.38
2023-02-11T19:27:01.754Z,80.40
2023-02-11T19:29:34.934Z,80.30
2023-02-11T19:32:04.463Z,80.37
2023-02-11T19:34:33.220Z,80.53
2023-02-11T19:37:01.701Z,80.32
2023-02-11T19:39:30.097Z,80.18
2023-02-11T19:41:58.471Z,80.04
2023-02-11T19:44:27.060Z,79.71
2023-02-11T19:46:56.748Z,80.06
2023-02-11T19:49:26.330Z,80.28
2023-02-11T19:51:58.083Z,80.24
2023-02-11T19:54:29.027Z,79.97
2023-02-11T19:56:57.643Z,79.78
2023-02-11T19:59:26.287Z,79.44
2023-02-11T20:01:55.996Z,79.58
2023-02-11T20:04:25.134Z,79.81
2023-02-11T20:06:53.517Z,79.66
2023-02-11T20:09:22.776Z,80.02
2023-02-11T20:11:51.239Z,80.07
2023-02-11T20:14:19.698Z,79.91
2023-02-11T20:16:49.861Z,79.86
2023-02-11T20:19:22.693Z,79.68
2023-02-11T20:21:55.688Z,79.43
2023-02-11T20:24:24.960Z,79.29
2023-02-11T20:26:55.503Z,79.05
2023-02-11T20:29:25.256Z,78.99
2023-02-11T20:31:54.147Z,78.59
2023-02-11T20:34:24.992Z,78.57
2023-02-11T20:36:54.150Z,78.25
2023-02-11T20:39:25.096Z,78.05
2023-02-11T20:41:54.832Z,78.22
2023-02-11T20:44:23.714Z,78.12
2023-02-11T20:46:54.334Z,78.05
2023-02-11T20:49:28.225Z,78.20
2023-02-11T20:51:58.380Z,78.37
2023-02-11T20:54:27.493Z,78.42
2023-02-11T20:56:57.033Z,78.54
2023-02-11T20:59:26.378Z,78.68
2023-02-11T21:01:57.174Z,78.34
2023-02-11T21:04:30.554Z,78.46
2023-02-11T21:07:01.053Z,78.46
2023-02-11T21:09:33.236Z,78.66
2023-02-11T21:12:02.881Z,78.81
2023-02-11T21:14:31.694Z,78.72
2023-02-11T21:17:00.219Z,78.81
2023-02-11T21:19:29.940Z,78.75
2023-02-11T21:22:00.746Z,78.62
2023-02-11T21:24:30.774Z,78.69
2023-02-11T21:26:59.191Z,78.71
2023-02-11T21:29:27.471Z,78.61
2023-02-11T21:31:56.026Z,78.51
2023-02-11T21:34:24.349Z,78.02
2023-02-11T21:36:54.170Z,78.10
2023-02-11T21:39:22.525Z,78.21
2023-02-11T21:41:51.606Z,78.26
2023-02-11T21:44:20.339Z,78.33
2023-02-11T21:46:49.112Z,78.23
2023-02-11T21:49:17.688Z,78.31
2023-02-11T21:51:45.996Z,78.54
2023-02-11T21:54:15.910Z,78.70
2023-02-11T21:56:44.204Z,78.42
2023-02-11T21:59:14.484Z,78.57
2023-02-11T22:01:43.080Z,78.75
2023-02-11T22:04:11.483Z,79.14
2023-02-11T22:06:40.475Z,79.14
2023-02-11T22:09:11.116Z,79.07
2023-02-11T22:11:40.641Z,79.06
2023-02-11T22:14:09.353Z,79.28
2023-02-11T22:16:37.819Z,79.16
2023-02-11T22:19:07.428Z,79.00
2023-02-11T22:21:35.858Z,78.88
2023-02-11T22:24:04.192Z,78.74
2023-02-11T22:26:32.853Z,78.79
2023-02-11T22:29:02.510Z,78.79
2023-02-11T22:31:34.203Z,78.97
2023-02-11T22:34:04.265Z,79.08
2023-02-11T22:36:34.870Z,78.90
2023-02-11T22:39:06.109Z,79.03
2023-02-11T22:41:34.890Z,79.16
2023-02-11T22:44:04.732Z,79.04
2023-02-11T22:46:33.189Z,78.95
2023-02-11T22:49:01.496Z,78.99
2023-02-11T22:51:31.195Z,79.31
2023-02-11T22:54:02.729Z,79.59
2023-02-11T22:56:32.946Z,79.47
2023-02-11T22:59:06.109Z,79.28
2023-02-11T23:01:35.667Z,78.99
2023-02-11T23:04:06.726Z,78.85
2023-02-11T23:06:36.020Z,78.70
2023-02-11T23:09:05.678Z,78.55
2023-02-11T23:11:34.497Z,78.47
2023-02-11T23:14:05.330Z,78.34
2023-02-11T23:16:36.096Z,78.20
2023-02-11T23:19:06.228Z,78.19
2023-02-11T23:21:37.619Z,78.46
2023-02-11T23:24:09.935Z,78.77
2023-02-11T23:26:39.944Z,78.74
2023-02-11T23:29:10.775Z,79.11
2023-02-11T23:31:41.270Z,79.07
2023-02-11T23:34:09.891Z,78.97
2023-02-11T23:36:38.933Z,79.21
2023-02-11T23:39:07.502Z,79.32
2023-02-11T23:41:35.839Z,79.28
2023-02-11T23:44:04.302Z,79.24
2023-02-11T23:46:34.003Z,79.19
2023-02-11T23:49:02.592Z,79.01
2023-02-11T23:51:31.205Z,78.77
2023-02-11T23:53:59.443Z,78.55
2023-02-11T23:56:29.218Z,78.63
2023-02-11T23:59:00.636Z,78.86
